METAR Data
IDs: Format: Raw Decoded Include TAF

Data at: 1720 UTC 16 Oct 2021

LFQA 161700Z AUTO 00000KT 9999 FEW044 10/06 Q1020